createdAt,value
2022-08-03T00:01:05.912Z,14.38
2022-08-03T00:03:36.708Z,13.82
2022-08-03T00:06:06.950Z,16.17
2022-08-03T00:08:37.640Z,15.57
2022-08-03T00:11:10.288Z,15.75
2022-08-03T00:13:40.809Z,13.73
2022-08-03T00:16:12.580Z,14.65
2022-08-03T00:18:46.837Z,14.63
2022-08-03T00:21:16.876Z,15.35
2022-08-03T00:23:52.274Z,16.77
2022-08-03T00:26:24.627Z,20.65
2022-08-03T00:28:54.727Z,21.70
2022-08-03T00:31:40.222Z,21.95
2022-08-03T00:34:15.502Z,20.38
2022-08-03T00:36:46.122Z,22.35
2022-08-03T00:39:16.233Z,21.45
2022-08-03T00:41:49.612Z,22.13
2022-08-03T00:44:19.795Z,23.45
2022-08-03T00:46:49.592Z,23.52
2022-08-03T00:49:20.188Z,21.73
2022-08-03T00:51:50.352Z,21.48
2022-08-03T00:54:21.810Z,21.98
2022-08-03T00:56:59.815Z,24.10
2022-08-03T00:59:32.437Z,21.60
2022-08-03T01:02:03.480Z,21.00
2022-08-03T01:04:36.953Z,20.83
2022-08-03T01:07:27.751Z,18.27
2022-08-03T01:10:06.557Z,19.25
2022-08-03T01:12:42.593Z,18.38
2022-08-03T01:15:40.303Z,19.10
2022-08-03T01:18:34.722Z,18.17
2022-08-03T01:21:14.412Z,18.58
2022-08-03T01:24:16.086Z,19.17
2022-08-03T01:27:08.771Z,15.63
2022-08-03T01:30:00.172Z,17.35
2022-08-03T01:32:59.042Z,13.90
2022-08-03T01:36:04.713Z,14.70
2022-08-03T01:38:43.325Z,15.15
2022-08-03T01:41:24.118Z,17.42
2022-08-03T01:44:29.499Z,17.90
2022-08-03T01:46:50.262Z,19.85
2022-08-03T01:49:20.989Z,20.42
2022-08-03T01:52:03.197Z,18.45
2022-08-03T01:54:39.170Z,18.83
2022-08-03T01:57:10.243Z,19.83
2022-08-03T01:59:41.918Z,17.55
2022-08-03T02:02:27.972Z,15.43
2022-08-03T02:04:58.906Z,18.63
2022-08-03T02:07:31.773Z,18.77
2022-08-03T02:10:04.215Z,19.70
2022-08-03T02:12:35.859Z,19.23
2022-08-03T02:15:07.275Z,19.95
2022-08-03T02:17:39.779Z,20.15
2022-08-03T02:20:13.414Z,19.92
2022-08-03T02:22:45.921Z,19.15
2022-08-03T02:25:17.981Z,18.67
2022-08-03T02:28:01.585Z,19.42
2022-08-03T02:30:42.817Z,17.80
2022-08-03T02:33:26.389Z,15.07
2022-08-03T02:35:59.038Z,17.80
2022-08-03T02:38:34.735Z,18.92
2022-08-03T02:41:10.535Z,18.83
2022-08-03T02:44:06.333Z,15.93
2022-08-03T02:46:39.714Z,14.57
2022-08-03T02:49:42.065Z,15.02
2022-08-03T02:52:05.381Z,14.38
2022-08-03T02:54:40.217Z,13.98
2022-08-03T02:57:12.912Z,13.30
2022-08-03T02:59:45.336Z,13.70
2022-08-03T03:02:18.795Z,13.40
2022-08-03T03:05:52.448Z,14.43
2022-08-03T03:07:52.071Z,13.70
2022-08-03T03:10:27.921Z,14.80
2022-08-03T03:12:59.587Z,13.55
2022-08-03T03:15:32.814Z,14.95
2022-08-03T03:18:04.851Z,15.68
2022-08-03T03:20:36.930Z,15.50
2022-08-03T03:23:07.643Z,14.23
2022-08-03T03:25:39.035Z,16.02
2022-08-03T03:28:09.211Z,14.73
2022-08-03T03:30:40.120Z,14.90
2022-08-03T03:33:10.246Z,16.63
2022-08-03T03:35:43.469Z,16.95
2022-08-03T03:38:13.836Z,15.68
2022-08-03T03:40:44.551Z,15.55
2022-08-03T03:43:14.946Z,14.60
2022-08-03T03:45:45.808Z,14.55
2022-08-03T03:48:15.997Z,14.60
2022-08-03T03:50:46.762Z,14.70
2022-08-03T03:53:19.717Z,14.25
2022-08-03T03:55:59.762Z,15.05
2022-08-03T03:58:34.856Z,17.17
2022-08-03T04:01:05.314Z,14.60
2022-08-03T04:03:37.677Z,14.77
2022-08-03T04:06:27.426Z,14.10
2022-08-03T04:09:15.858Z,15.07
2022-08-03T04:12:00.262Z,14.43
2022-08-03T04:14:37.454Z,13.40
2022-08-03T04:17:11.171Z,13.95
2022-08-03T04:19:51.468Z,13.85
2022-08-03T04:22:25.711Z,13.80
2022-08-03T04:25:09.474Z,13.88
2022-08-03T04:27:43.070Z,14.15
2022-08-03T04:30:14.202Z,13.65
2022-08-03T04:32:48.428Z,15.40
2022-08-03T04:35:20.301Z,14.48
2022-08-03T04:37:53.693Z,13.85
2022-08-03T04:40:43.115Z,14.15
2022-08-03T04:43:16.291Z,13.68
2022-08-03T04:45:49.672Z,13.15
2022-08-03T04:48:21.550Z,13.45
2022-08-03T04:50:51.753Z,13.15
2022-08-03T04:53:22.731Z,13.10
2022-08-03T04:55:53.277Z,13.10
2022-08-03T04:58:23.687Z,12.35
2022-08-03T05:03:25.026Z,12.70
2022-08-03T05:06:01.730Z,13.23
2022-08-03T05:08:46.362Z,13.07
2022-08-03T05:11:18.085Z,13.85
2022-08-03T05:13:50.042Z,13.07
2022-08-03T05:16:22.785Z,12.80
2022-08-03T05:18:56.145Z,14.02
2022-08-03T05:21:26.173Z,12.80
2022-08-03T05:26:46.092Z,12.32
2022-08-03T05:29:16.079Z,13.05
2022-08-03T05:31:46.491Z,12.80
2022-08-03T05:34:16.509Z,13.23
2022-08-03T05:36:46.931Z,12.57
2022-08-03T05:39:16.901Z,14.13
2022-08-03T05:41:47.431Z,13.88
2022-08-03T05:44:17.479Z,16.08
2022-08-03T05:46:48.000Z,14.18
2022-08-03T05:49:18.131Z,14.13
2022-08-03T05:51:48.851Z,13.27
2022-08-03T05:54:55.834Z,15.38
2022-08-03T05:57:20.965Z,16.25
2022-08-03T05:59:57.851Z,13.98
2022-08-03T06:02:29.662Z,14.40
2022-08-03T06:05:00.438Z,14.30
2022-08-03T06:07:31.209Z,12.38
2022-08-03T06:10:35.713Z,13.00
2022-08-03T06:12:53.870Z,11.95
2022-08-03T06:15:24.487Z,12.23
2022-08-03T06:20:29.193Z,12.80
2022-08-03T06:25:32.263Z,12.15
2022-08-03T06:28:02.490Z,13.98
2022-08-03T06:30:33.115Z,14.68
2022-08-03T06:35:33.379Z,12.68
2022-08-03T06:38:05.331Z,12.75
2022-08-03T06:40:41.145Z,13.82
2022-08-03T06:43:12.511Z,13.43
2022-08-03T06:45:43.994Z,13.82
2022-08-03T06:48:17.861Z,13.63
2022-08-03T06:50:48.409Z,12.40
2022-08-03T06:55:54.657Z,11.45
2022-08-03T06:58:27.629Z,12.57
2022-08-03T07:00:58.194Z,12.30
2022-08-03T07:03:29.007Z,13.65
2022-08-03T07:05:59.631Z,13.40
2022-08-03T07:08:34.049Z,15.27
2022-08-03T07:11:05.685Z,14.07
2022-08-03T07:13:35.886Z,13.15
2022-08-03T07:16:05.949Z,13.93
2022-08-03T07:18:40.327Z,13.10
2022-08-03T07:21:12.059Z,13.77
2022-08-03T07:23:42.572Z,14.52
2022-08-03T07:28:43.299Z,14.57
2022-08-03T07:31:13.486Z,12.93
2022-08-03T07:33:44.040Z,15.80
2022-08-03T07:38:43.397Z,13.27
2022-08-03T07:41:13.898Z,13.40
2022-08-03T07:46:13.273Z,12.48
2022-08-03T07:48:43.960Z,14.10
2022-08-03T07:51:13.976Z,13.52
2022-08-03T07:53:47.339Z,13.38
2022-08-03T07:56:18.166Z,14.30
2022-08-03T07:58:48.683Z,12.85
2022-08-03T08:03:52.660Z,13.18
2022-08-03T08:06:23.788Z,13.65
2022-08-03T08:08:54.934Z,13.82
2022-08-03T08:11:24.962Z,13.40
2022-08-03T08:13:55.503Z,14.77
2022-08-03T08:16:25.580Z,14.10
2022-08-03T08:18:56.123Z,16.55
2022-08-03T08:21:26.379Z,18.00
2022-08-03T08:24:18.295Z,16.25
2022-08-03T08:26:49.782Z,15.13
2022-08-03T08:29:24.173Z,16.08
2022-08-03T08:31:54.696Z,13.80
2022-08-03T08:36:54.194Z,15.13
2022-08-03T08:39:24.757Z,14.98
2022-08-03T08:44:24.160Z,15.48
2022-08-03T08:46:56.977Z,15.55
2022-08-03T08:49:29.612Z,17.30
2022-08-03T08:52:01.643Z,14.95
2022-08-03T08:54:34.409Z,14.75
2022-08-03T08:57:16.472Z,15.68
2022-08-03T08:59:58.256Z,16.25
2022-08-03T09:02:32.143Z,16.80
2022-08-03T09:05:07.325Z,16.83
2022-08-03T09:07:38.557Z,18.08
2022-08-03T09:10:13.058Z,16.92
2022-08-03T09:12:46.531Z,16.70
2022-08-03T09:15:26.536Z,16.25
2022-08-03T09:17:58.978Z,20.00
2022-08-03T09:20:34.968Z,21.85
2022-08-03T09:23:44.987Z,20.08
2022-08-03T09:26:02.733Z,16.90
2022-08-03T09:29:01.605Z,15.80
2022-08-03T09:31:43.565Z,17.55
2022-08-03T09:34:19.642Z,15.93
2022-08-03T09:36:52.045Z,16.52
2022-08-03T09:39:41.100Z,14.73
2022-08-03T09:42:23.862Z,15.43
2022-08-03T09:44:55.189Z,15.43
2022-08-03T09:47:33.250Z,14.65
2022-08-03T09:50:13.481Z,14.10
2022-08-03T09:52:52.154Z,13.95
2022-08-03T09:56:35.490Z,14.90
2022-08-03T09:58:15.438Z,13.82
2022-08-03T10:00:58.211Z,12.75
2022-08-03T10:04:03.106Z,13.48
2022-08-03T10:06:29.034Z,13.80
2022-08-03T10:09:14.139Z,13.90
2022-08-03T10:11:48.043Z,17.00
2022-08-03T10:14:22.130Z,13.68
2022-08-03T10:16:52.768Z,13.30
2022-08-03T10:19:22.918Z,13.40
2022-08-03T10:21:59.307Z,16.40
2022-08-03T10:24:31.802Z,19.65
2022-08-03T10:27:05.563Z,18.20
2022-08-03T10:29:40.412Z,19.75
2022-08-03T10:32:42.218Z,19.27
2022-08-03T10:35:21.085Z,14.10
2022-08-03T10:37:58.777Z,14.27
2022-08-03T10:40:49.503Z,14.23
2022-08-03T10:43:29.017Z,13.07
2022-08-03T10:46:00.321Z,14.60
2022-08-03T10:48:31.726Z,15.23
2022-08-03T10:51:01.933Z,16.17
2022-08-03T10:53:39.745Z,16.55
2022-08-03T10:56:54.374Z,18.33
2022-08-03T10:59:50.658Z,19.58
2022-08-03T11:02:20.790Z,21.95
2022-08-03T11:05:33.037Z,20.77
2022-08-03T11:08:21.985Z,22.17
2022-08-03T11:10:54.831Z,21.45
2022-08-03T11:13:27.334Z,22.48
2022-08-03T11:16:02.399Z,20.95
2022-08-03T11:21:04.127Z,22.05
2022-08-03T11:24:04.914Z,22.90
2022-08-03T11:26:36.721Z,21.58
2022-08-03T11:29:32.334Z,19.05
2022-08-03T11:32:02.459Z,20.02
2022-08-03T11:34:32.969Z,20.48
2022-08-03T11:37:31.347Z,20.40
2022-08-03T11:40:05.195Z,19.27
2022-08-03T11:42:35.310Z,19.30
2022-08-03T11:45:10.475Z,20.27
2022-08-03T11:47:51.055Z,18.92
2022-08-03T11:50:24.082Z,16.88
2022-08-03T11:52:54.383Z,18.15
2022-08-03T11:55:28.980Z,17.83
2022-08-03T11:59:15.212Z,14.95
2022-08-03T12:00:54.574Z,15.18
2022-08-03T12:03:25.001Z,14.05
2022-08-03T12:05:56.381Z,15.63
2022-08-03T12:08:29.270Z,16.35
2022-08-03T12:11:02.092Z,16.27
2022-08-03T12:14:45.351Z,15.27
2022-08-03T12:16:49.903Z,14.02
2022-08-03T12:19:20.030Z,12.88
2022-08-03T12:21:57.281Z,13.40
2022-08-03T12:24:30.745Z,13.82
2022-08-03T12:27:01.223Z,12.05
2022-08-03T12:29:31.298Z,10.45
2022-08-03T12:32:02.467Z,9.80
2022-08-03T12:34:51.793Z,11.25
2022-08-03T12:37:25.950Z,10.70
2022-08-03T12:40:03.513Z,8.88
2022-08-03T12:42:38.558Z,9.75
2022-08-03T12:45:29.274Z,7.90
2022-08-03T12:48:03.594Z,7.80
2022-08-03T12:50:38.166Z,8.27
2022-08-03T12:53:10.956Z,7.75
2022-08-03T12:55:57.630Z,8.77
2022-08-03T12:58:37.777Z,9.07
2022-08-03T13:01:10.755Z,9.85
2022-08-03T13:06:25.847Z,12.02
2022-08-03T13:09:08.364Z,12.63
2022-08-03T13:11:55.900Z,11.55
2022-08-03T13:14:29.725Z,10.60
2022-08-03T13:17:01.027Z,10.82
2022-08-03T13:19:33.179Z,13.63
2022-08-03T13:22:11.911Z,12.27
2022-08-03T13:24:43.969Z,11.77
2022-08-03T13:28:01.838Z,11.65
2022-08-03T13:30:06.736Z,11.90
2022-08-03T13:32:37.362Z,10.80
2022-08-03T13:35:09.906Z,10.88
2022-08-03T13:37:40.554Z,9.73
2022-08-03T13:40:11.880Z,9.05
2022-08-03T13:42:45.212Z,8.75
2022-08-03T13:45:15.860Z,9.55
2022-08-03T13:47:45.876Z,9.85
2022-08-03T13:50:16.539Z,9.90
2022-08-03T13:52:49.754Z,8.75
2022-08-03T13:55:20.547Z,8.93
2022-08-03T13:58:03.676Z,8.43
2022-08-03T14:00:37.847Z,9.25
2022-08-03T14:03:15.457Z,9.77
2022-08-03T14:05:46.259Z,8.75
2022-08-03T14:08:16.513Z,8.88
2022-08-03T14:10:48.060Z,8.43
2022-08-03T14:13:18.734Z,8.00
2022-08-03T14:15:50.981Z,8.00
2022-08-03T14:18:29.013Z,8.13
2022-08-03T14:21:07.515Z,8.25
2022-08-03T14:23:41.334Z,8.02
2022-08-03T14:26:13.192Z,9.05
2022-08-03T14:28:43.675Z,7.55
2022-08-03T14:31:15.517Z,7.63
2022-08-03T14:34:04.918Z,7.38
2022-08-03T14:36:35.632Z,6.78
2022-08-03T14:39:06.576Z,9.00
2022-08-03T14:41:37.269Z,8.38
2022-08-03T14:44:07.670Z,8.32
2022-08-03T14:46:38.367Z,7.63
2022-08-03T14:50:33.074Z,8.52
2022-08-03T14:51:59.269Z,8.73
2022-08-03T14:54:32.131Z,8.60
2022-08-03T14:57:02.866Z,8.27
2022-08-03T14:59:55.776Z,7.95
2022-08-03T15:02:24.199Z,7.32
2022-08-03T15:04:54.867Z,9.35
2022-08-03T15:07:25.717Z,9.05
2022-08-03T15:09:56.024Z,9.20
2022-08-03T15:12:26.957Z,9.00
2022-08-03T15:14:57.622Z,8.45
2022-08-03T15:17:28.482Z,9.80
2022-08-03T15:20:00.217Z,8.70
2022-08-03T15:22:36.632Z,8.82
2022-08-03T15:26:03.645Z,9.00
2022-08-03T15:28:04.318Z,9.57
2022-08-03T15:30:38.268Z,9.35
2022-08-03T15:33:09.207Z,8.57
2022-08-03T15:35:39.502Z,8.93
2022-08-03T15:38:10.143Z,8.63
2022-08-03T15:40:40.696Z,7.93
2022-08-03T15:43:11.370Z,8.90
2022-08-03T15:45:42.693Z,9.65
2022-08-03T15:48:13.421Z,9.95
2022-08-03T15:50:44.703Z,9.68
2022-08-03T15:53:15.226Z,9.60
2022-08-03T15:55:45.415Z,9.70
2022-08-03T15:59:03.875Z,10.15
2022-08-03T16:01:08.584Z,9.18
2022-08-03T16:03:39.500Z,9.48
2022-08-03T16:06:09.879Z,8.85
2022-08-03T16:08:40.422Z,10.63
2022-08-03T16:11:11.448Z,9.15
2022-08-03T16:14:13.326Z,9.13
2022-08-03T16:16:32.360Z,8.90
2022-08-03T16:19:05.481Z,8.52
2022-08-03T16:21:48.368Z,8.38
2022-08-03T16:24:25.883Z,8.65
2022-08-03T16:27:00.527Z,9.02
2022-08-03T16:29:31.538Z,9.38
2022-08-03T16:32:09.497Z,8.07
2022-08-03T16:34:41.048Z,9.40
2022-08-03T16:37:36.934Z,8.25
2022-08-03T16:40:02.353Z,8.60
2022-08-03T16:42:32.567Z,8.60
2022-08-03T16:45:03.562Z,7.95
2022-08-03T16:47:34.131Z,8.73
2022-08-03T16:50:11.957Z,8.35
2022-08-03T16:52:47.264Z,7.95
2022-08-03T16:55:43.367Z,9.07
2022-08-03T16:58:09.048Z,15.82
2022-08-03T17:00:44.191Z,9.30
2022-08-03T17:03:25.550Z,10.45
2022-08-03T17:06:02.011Z,18.95
2022-08-03T17:08:33.503Z,12.30
2022-08-03T17:11:04.139Z,9.52
2022-08-03T17:13:39.947Z,14.50
2022-08-03T17:16:15.438Z,10.60
2022-08-03T17:18:57.753Z,10.35
2022-08-03T17:21:34.617Z,10.93
2022-08-03T17:24:12.173Z,10.98
2022-08-03T17:26:49.904Z,11.15
2022-08-03T17:29:22.976Z,10.57
2022-08-03T17:32:07.872Z,12.40
2022-08-03T17:34:44.439Z,12.10
2022-08-03T17:37:27.394Z,12.75
2022-08-03T17:40:08.786Z,12.48
2022-08-03T17:42:41.228Z,11.75
2022-08-03T17:45:15.649Z,10.52
2022-08-03T17:47:57.493Z,11.50
2022-08-03T17:50:41.998Z,11.73
2022-08-03T17:53:24.522Z,11.00
2022-08-03T17:56:42.371Z,10.98
2022-08-03T17:59:51.576Z,13.32
2022-08-03T18:03:17.614Z,11.35
2022-08-03T18:06:11.163Z,10.48
2022-08-03T18:08:58.047Z,10.68
2022-08-03T18:11:38.830Z,11.00
2022-08-03T18:14:21.003Z,10.13
2022-08-03T18:17:06.426Z,10.43
2022-08-03T18:20:02.184Z,10.50
2022-08-03T18:22:36.056Z,11.10
2022-08-03T18:25:08.005Z,9.65
2022-08-03T18:27:42.702Z,9.70
2022-08-03T18:30:16.842Z,10.20
2022-08-03T18:33:00.960Z,10.05
2022-08-03T18:38:23.827Z,10.60
2022-08-03T18:40:55.120Z,10.23
2022-08-03T18:43:47.286Z,9.93
2022-08-03T18:46:36.746Z,12.15
2022-08-03T18:49:23.806Z,15.05
2022-08-03T18:52:28.881Z,10.30
2022-08-03T18:55:20.287Z,10.90
2022-08-03T18:58:02.084Z,11.55
2022-08-03T19:00:54.009Z,12.20
2022-08-03T19:03:41.423Z,11.60
2022-08-03T19:06:20.874Z,12.00
2022-08-03T19:09:01.383Z,12.15
2022-08-03T19:12:12.364Z,12.25
2022-08-03T19:14:54.927Z,13.10
2022-08-03T19:17:32.845Z,12.30
2022-08-03T19:20:07.239Z,11.52
2022-08-03T19:22:45.898Z,12.48
2022-08-03T19:25:18.145Z,12.32
2022-08-03T19:27:49.224Z,14.10
2022-08-03T19:30:39.519Z,13.13
2022-08-03T19:33:12.487Z,13.68
2022-08-03T19:35:55.129Z,13.40
2022-08-03T19:38:29.857Z,12.90
2022-08-03T19:41:04.016Z,13.93
2022-08-03T19:46:35.324Z,14.80
2022-08-03T19:49:16.651Z,14.20
2022-08-03T19:52:01.713Z,13.63
2022-08-03T19:54:53.356Z,13.20
2022-08-03T19:57:30.358Z,13.27
2022-08-03T20:00:03.547Z,13.93
2022-08-03T20:02:35.692Z,13.30
2022-08-03T20:05:06.271Z,13.68
2022-08-03T20:07:48.595Z,13.65
2022-08-03T20:10:20.138Z,13.32
2022-08-03T20:12:51.077Z,13.82
2022-08-03T20:15:22.487Z,14.82
2022-08-03T20:18:02.438Z,13.60
2022-08-03T20:20:35.934Z,13.85
2022-08-03T20:23:15.475Z,13.77
2022-08-03T20:28:51.495Z,14.32
2022-08-03T20:31:32.448Z,13.15
2022-08-03T20:34:09.190Z,13.85
2022-08-03T20:36:40.421Z,13.90
2022-08-03T20:39:15.178Z,13.82
2022-08-03T20:41:45.572Z,14.20
2022-08-03T20:44:17.151Z,14.73
2022-08-03T20:46:53.178Z,15.20
2022-08-03T20:49:28.506Z,14.00
2022-08-03T20:52:01.698Z,15.05
2022-08-03T20:54:33.316Z,15.57
2022-08-03T20:57:09.379Z,14.45
2022-08-03T20:59:50.770Z,15.15
2022-08-03T21:02:29.563Z,15.80
2022-08-03T21:08:05.854Z,14.25
2022-08-03T21:10:42.142Z,13.60
2022-08-03T21:13:02.803Z,12.77
2022-08-03T21:13:04.191Z,9.43
2022-08-03T21:13:07.970Z,14.82
2022-08-03T21:13:13.662Z,14.10
2022-08-03T21:13:25.008Z,15.05
2022-08-03T21:16:12.687Z,14.23
2022-08-03T21:18:51.377Z,14.30
2022-08-03T21:21:25.170Z,13.77
2022-08-03T21:23:56.516Z,13.70
2022-08-03T21:26:28.111Z,14.52
2022-08-03T21:28:58.534Z,13.82
2022-08-03T21:31:29.082Z,14.63
2022-08-03T21:34:02.925Z,14.15
2022-08-03T21:36:36.384Z,13.57
2022-08-03T21:39:09.763Z,13.20
2022-08-03T21:41:41.904Z,14.35
2022-08-03T21:44:12.312Z,13.60
2022-08-03T21:46:44.035Z,13.63
2022-08-03T21:50:05.315Z,13.80
2022-08-03T21:52:08.702Z,14.18
2022-08-03T21:54:45.160Z,15.07
2022-08-03T21:57:24.838Z,13.70
2022-08-03T22:00:03.745Z,13.15
2022-08-03T22:02:51.686Z,13.48
2022-08-03T22:05:28.996Z,14.18
2022-08-03T22:08:16.692Z,13.27
2022-08-03T22:10:46.894Z,12.57
2022-08-03T22:13:43.113Z,13.45
2022-08-03T22:16:10.374Z,12.45
2022-08-03T22:18:43.026Z,13.55
2022-08-03T22:21:15.354Z,14.05
2022-08-03T22:23:55.076Z,13.68
2022-08-03T22:26:35.610Z,14.30
2022-08-03T22:29:09.728Z,12.95
2022-08-03T22:31:58.513Z,13.43
2022-08-03T22:34:30.997Z,12.82
2022-08-03T22:37:04.512Z,13.20
2022-08-03T22:39:36.732Z,12.63
2022-08-03T22:42:07.902Z,13.00
2022-08-03T22:44:38.692Z,12.80
2022-08-03T22:47:10.876Z,12.48
2022-08-03T22:49:44.683Z,12.05
2022-08-03T22:52:16.421Z,12.20
2022-08-03T22:54:48.747Z,14.65
2022-08-03T22:57:19.105Z,12.85
2022-08-03T22:59:51.770Z,13.88
2022-08-03T23:02:24.275Z,13.85
2022-08-03T23:04:57.970Z,12.77
2022-08-03T23:07:41.955Z,13.45
2022-08-03T23:10:16.210Z,12.27
2022-08-03T23:12:49.646Z,13.43
2022-08-03T23:15:20.224Z,13.18
2022-08-03T23:17:57.334Z,13.60
2022-08-03T23:20:30.079Z,13.88
2022-08-03T23:23:01.251Z,12.43
2022-08-03T23:25:33.020Z,13.02
2022-08-03T23:28:05.903Z,11.95
2022-08-03T23:30:39.659Z,13.02
2022-08-03T23:33:14.985Z,13.50
2022-08-03T23:36:29.698Z,15.98
2022-08-03T23:38:54.277Z,13.20
2022-08-03T23:41:25.346Z,14.55
2022-08-03T23:43:55.913Z,12.88
2022-08-03T23:46:28.901Z,12.52
2022-08-03T23:49:02.295Z,13.60
2022-08-03T23:51:50.159Z,13.98
2022-08-03T23:54:35.843Z,12.77
2022-08-03T23:57:31.874Z,13.38
